sensor_id;sensor_type;location;lat;lon;timestamp;temperature;humidity
20047;DHT22;45339;49.838;18.904;2022-12-18T00:04:04;-3.90;99.90
20047;DHT22;45339;49.838;18.904;2022-12-18T00:34:15;-3.90;99.90
20047;DHT22;45339;49.838;18.904;2022-12-18T01:04:27;-3.90;99.90
20047;DHT22;45339;49.838;18.904;2022-12-18T01:34:38;-4.00;99.90
20047;DHT22;45339;49.838;18.904;2022-12-18T02:04:59;-4.10;99.90
20047;DHT22;45339;49.838;18.904;2022-12-18T02:35:11;-4.20;99.90
20047;DHT22;45339;49.838;18.904;2022-12-18T03:05:22;-4.30;99.90
20047;DHT22;45339;49.838;18.904;2022-12-18T03:35:37;-4.30;99.90
20047;DHT22;45339;49.838;18.904;2022-12-18T04:05:49;-4.40;99.90
20047;DHT22;45339;49.838;18.904;2022-12-18T04:36:00;-4.30;99.90
20047;DHT22;45339;49.838;18.904;2022-12-18T05:06:09;-4.40;99.90
20047;DHT22;45339;49.838;18.904;2022-12-18T05:36:18;-4.40;99.90
20047;DHT22;45339;49.838;18.904;2022-12-18T06:06:27;-4.20;99.90
20047;DHT22;45339;49.838;18.904;2022-12-18T06:36:48;-4.50;99.90
20047;DHT22;45339;49.838;18.904;2022-12-18T07:06:57;-4.50;99.90
20047;DHT22;45339;49.838;18.904;2022-12-18T07:37:07;-4.40;99.90
20047;DHT22;45339;49.838;18.904;2022-12-18T08:07:17;-4.30;99.90
20047;DHT22;45339;49.838;18.904;2022-12-18T08:37:28;-4.00;99.90
20047;DHT22;45339;49.838;18.904;2022-12-18T09:07:39;2.60;99.90
20047;DHT22;45339;49.838;18.904;2022-12-18T09:37:54;8.60;48.90
20047;DHT22;45339;49.838;18.904;2022-12-18T10:08:16;12.00;10.50
20047;DHT22;45339;49.838;18.904;2022-12-18T10:38:31;11.70;1.00
20047;DHT22;45339;49.838;18.904;2022-12-18T11:08:39;9.50;1.00
20047;DHT22;45339;49.838;18.904;2022-12-18T11:38:49;3.00;5.00
20047;DHT22;45339;49.838;18.904;2022-12-18T12:09:01;0.90;90.20
20047;DHT22;45339;49.838;18.904;2022-12-18T12:39:11;-1.00;99.90
20047;DHT22;45339;49.838;18.904;2022-12-18T13:09:25;-1.30;1.00
20047;DHT22;45339;49.838;18.904;2022-12-18T13:39:41;-2.20;99.90
20047;DHT22;45339;49.838;18.904;2022-12-18T14:09:51;-3.00;1.00
20047;DHT22;45339;49.838;18.904;2022-12-18T14:40:26;-3.80;99.90
20047;DHT22;45339;49.838;18.904;2022-12-18T15:10:45;-4.70;99.90
20047;DHT22;45339;49.838;18.904;2022-12-18T15:40:57;-5.80;1.00
20047;DHT22;45339;49.838;18.904;2022-12-18T16:11:08;-7.10;1.00
20047;DHT22;45339;49.838;18.904;2022-12-18T16:41:21;-8.60;1.00
20047;DHT22;45339;49.838;18.904;2022-12-18T17:41:49;-10.40;99.90
20047;DHT22;45339;49.838;18.904;2022-12-18T18:11:58;-10.50;1.00
20047;DHT22;45339;49.838;18.904;2022-12-18T18:42:24;-11.10;99.90
20047;DHT22;45339;49.838;18.904;2022-12-18T19:12:37;-11.60;1.00
20047;DHT22;45339;49.838;18.904;2022-12-18T19:42:59;-11.60;1.00
20047;DHT22;45339;49.838;18.904;2022-12-18T20:13:08;-11.90;1.00
20047;DHT22;45339;49.838;18.904;2022-12-18T20:43:20;-12.20;1.00
20047;DHT22;45339;49.838;18.904;2022-12-18T21:13:32;-12.70;1.00
20047;DHT22;45339;49.838;18.904;2022-12-18T21:43:42;-12.80;93.50
20047;DHT22;45339;49.838;18.904;2022-12-18T22:14:03;-12.70;1.00
20047;DHT22;45339;49.838;18.904;2022-12-18T22:44:12;-12.90;1.00
20047;DHT22;45339;49.838;18.904;2022-12-18T23:14:22;-12.70;1.00
20047;DHT22;45339;49.838;18.904;2022-12-18T23:44:31;-12.60;99.90
